sensor_id;sensor_type;location;lat;lon;timestamp;pressure;altitude;pressure_sealevel;temperature;humidity
33185;BME280;19550;42.872;25.494;2023-03-17T00:00:20;96676.47;;;3.65;100.00
33185;BME280;19550;42.872;25.494;2023-03-17T00:02:48;96661.06;;;3.49;100.00
33185;BME280;19550;42.872;25.494;2023-03-17T00:05:18;96669.53;;;3.42;100.00
33185;BME280;19550;42.872;25.494;2023-03-17T00:07:47;96658.00;;;3.40;100.00
33185;BME280;19550;42.872;25.494;2023-03-17T00:10:19;96662.97;;;3.48;100.00
33185;BME280;19550;42.872;25.494;2023-03-17T00:12:48;96673.38;;;3.46;100.00
33185;BME280;19550;42.872;25.494;2023-03-17T00:15:15;96666.28;;;3.45;100.00
33185;BME280;19550;42.872;25.494;2023-03-17T00:17:44;96661.88;;;3.44;100.00
33185;BME280;19550;42.872;25.494;2023-03-17T00:20:23;96673.09;;;3.43;100.00
33185;BME280;19550;42.872;25.494;2023-03-17T00:22:51;96668.47;;;3.48;100.00
33185;BME280;19550;42.872;25.494;2023-03-17T00:25:23;96675.59;;;3.49;100.00
33185;BME280;19550;42.872;25.494;2023-03-17T00:27:50;96673.69;;;3.50;100.00
33185;BME280;19550;42.872;25.494;2023-03-17T00:30:17;96674.25;;;3.52;100.00
33185;BME280;19550;42.872;25.494;2023-03-17T00:32:46;96672.28;;;3.52;100.00
33185;BME280;19550;42.872;25.494;2023-03-17T00:35:16;96669.81;;;3.46;100.00
33185;BME280;19550;42.872;25.494;2023-03-17T00:37:44;96674.19;;;3.37;100.00
33185;BME280;19550;42.872;25.494;2023-03-17T00:40:16;96673.91;;;3.38;100.00
33185;BME280;19550;42.872;25.494;2023-03-17T00:42:45;96676.94;;;3.42;100.00
33185;BME280;19550;42.872;25.494;2023-03-17T00:45:12;96679.41;;;3.38;100.00
33185;BME280;19550;42.872;25.494;2023-03-17T00:47:40;96684.31;;;3.41;100.00
33185;BME280;19550;42.872;25.494;2023-03-17T00:50:11;96676.38;;;3.40;100.00
33185;BME280;19550;42.872;25.494;2023-03-17T00:52:38;96677.75;;;3.42;100.00
33185;BME280;19550;42.872;25.494;2023-03-17T00:55:06;96684.88;;;3.38;100.00
33185;BME280;19550;42.872;25.494;2023-03-17T00:57:34;96675.03;;;3.42;100.00
33185;BME280;19550;42.872;25.494;2023-03-17T01:00:04;96681.06;;;3.44;100.00
33185;BME280;19550;42.872;25.494;2023-03-17T01:02:31;96691.72;;;3.46;100.00
33185;BME280;19550;42.872;25.494;2023-03-17T01:04:58;96685.72;;;3.49;100.00
33185;BME280;19550;42.872;25.494;2023-03-17T01:07:26;96693.69;;;3.45;100.00
33185;BME280;19550;42.872;25.494;2023-03-17T01:09:55;96694.75;;;3.44;100.00
33185;BME280;19550;42.872;25.494;2023-03-17T01:12:22;96697.50;;;3.44;100.00
33185;BME280;19550;42.872;25.494;2023-03-17T01:14:48;96701.91;;;3.45;100.00
33185;BME280;19550;42.872;25.494;2023-03-17T01:17:19;96695.59;;;3.50;100.00
33185;BME280;19550;42.872;25.494;2023-03-17T01:19:47;96698.59;;;3.43;100.00
33185;BME280;19550;42.872;25.494;2023-03-17T01:22:14;96706.81;;;3.43;100.00
33185;BME280;19550;42.872;25.494;2023-03-17T01:24:41;96708.75;;;3.48;100.00
33185;BME280;19550;42.872;25.494;2023-03-17T01:27:07;96708.16;;;3.46;100.00
33185;BME280;19550;42.872;25.494;2023-03-17T01:29:35;96700.28;;;3.54;100.00
33185;BME280;19550;42.872;25.494;2023-03-17T01:32:02;96706.25;;;3.41;100.00
33185;BME280;19550;42.872;25.494;2023-03-17T01:34:30;96703.53;;;3.46;100.00
33185;BME280;19550;42.872;25.494;2023-03-17T01:36:57;96709.00;;;3.46;100.00
33185;BME280;19550;42.872;25.494;2023-03-17T01:39:24;96713.38;;;3.47;100.00
33185;BME280;19550;42.872;25.494;2023-03-17T01:41:52;96709.25;;;3.40;100.00
33185;BME280;19550;42.872;25.494;2023-03-17T01:44:22;96711.97;;;3.40;100.00
33185;BME280;19550;42.872;25.494;2023-03-17T01:46:50;96713.88;;;3.34;100.00
33185;BME280;19550;42.872;25.494;2023-03-17T01:49:28;96704.31;;;3.37;100.00
33185;BME280;19550;42.872;25.494;2023-03-17T01:52:01;96713.63;;;3.41;100.00
33185;BME280;19550;42.872;25.494;2023-03-17T01:54:34;96711.19;;;3.44;100.00
33185;BME280;19550;42.872;25.494;2023-03-17T01:57:08;96710.91;;;3.41;100.00
33185;BME280;19550;42.872;25.494;2023-03-17T01:59:39;96720.19;;;3.40;100.00
33185;BME280;19550;42.872;25.494;2023-03-17T02:02:10;96717.78;;;3.43;100.00
33185;BME280;19550;42.872;25.494;2023-03-17T02:04:38;96709.53;;;3.38;100.00
33185;BME280;19550;42.872;25.494;2023-03-17T02:07:07;96720.50;;;3.43;100.00
33185;BME280;19550;42.872;25.494;2023-03-17T02:09:34;96724.59;;;3.46;100.00
33185;BME280;19550;42.872;25.494;2023-03-17T02:12:01;96722.19;;;3.49;100.00
33185;BME280;19550;42.872;25.494;2023-03-17T02:14:29;96728.41;;;3.40;100.00
33185;BME280;19550;42.872;25.494;2023-03-17T02:16:56;96719.94;;;3.41;100.00
33185;BME280;19550;42.872;25.494;2023-03-17T02:19:23;96724.34;;;3.42;100.00
33185;BME280;19550;42.872;25.494;2023-03-17T02:21:53;96720.25;;;3.50;100.00
33185;BME280;19550;42.872;25.494;2023-03-17T02:24:26;96735.56;;;3.41;100.00
33185;BME280;19550;42.872;25.494;2023-03-17T02:26:56;96740.22;;;3.40;100.00
33185;BME280;19550;42.872;25.494;2023-03-17T02:29:25;96741.94;;;3.56;100.00
33185;BME280;19550;42.872;25.494;2023-03-17T02:31:52;96746.28;;;3.52;100.00
33185;BME280;19550;42.872;25.494;2023-03-17T02:34:19;96746.78;;;3.39;100.00
33185;BME280;19550;42.872;25.494;2023-03-17T02:36:46;96758.59;;;3.45;100.00
33185;BME280;19550;42.872;25.494;2023-03-17T02:39:14;96754.16;;;3.34;100.00
33185;BME280;19550;42.872;25.494;2023-03-17T02:41:41;96751.97;;;3.36;100.00
33185;BME280;19550;42.872;25.494;2023-03-17T02:44:08;96753.66;;;3.42;100.00
33185;BME280;19550;42.872;25.494;2023-03-17T02:46:35;96753.91;;;3.40;100.00
33185;BME280;19550;42.872;25.494;2023-03-17T02:49:02;96762.97;;;3.41;100.00
33185;BME280;19550;42.872;25.494;2023-03-17T02:51:30;96765.19;;;3.49;100.00
33185;BME280;19550;42.872;25.494;2023-03-17T02:53:56;96761.59;;;3.43;100.00
33185;BME280;19550;42.872;25.494;2023-03-17T02:56:25;96762.72;;;3.47;100.00
33185;BME280;19550;42.872;25.494;2023-03-17T02:58:51;96758.88;;;3.43;100.00
33185;BME280;19550;42.872;25.494;2023-03-17T03:01:18;96754.00;;;3.55;100.00
33185;BME280;19550;42.872;25.494;2023-03-17T03:03:45;96758.38;;;3.51;100.00
33185;BME280;19550;42.872;25.494;2023-03-17T03:06:12;96762.09;;;3.35;100.00
33185;BME280;19550;42.872;25.494;2023-03-17T03:08:39;96761.25;;;3.25;100.00
33185;BME280;19550;42.872;25.494;2023-03-17T03:11:06;96760.09;;;3.20;100.00
33185;BME280;19550;42.872;25.494;2023-03-17T03:13:35;96760.09;;;3.20;100.00
33185;BME280;19550;42.872;25.494;2023-03-17T03:16:02;96760.94;;;3.21;100.00
33185;BME280;19550;42.872;25.494;2023-03-17T03:18:29;96775.47;;;3.27;100.00
33185;BME280;19550;42.872;25.494;2023-03-17T03:20:58;96776.28;;;3.22;100.00
33185;BME280;19550;42.872;25.494;2023-03-17T03:23:25;96775.16;;;3.18;100.00
33185;BME280;19550;42.872;25.494;2023-03-17T03:25:52;96771.13;;;3.31;100.00
33185;BME280;19550;42.872;25.494;2023-03-17T03:28:19;96777.19;;;3.38;100.00
33185;BME280;19550;42.872;25.494;2023-03-17T03:30:48;96777.44;;;3.31;100.00
33185;BME280;19550;42.872;25.494;2023-03-17T03:33:15;96774.09;;;3.24;100.00
33185;BME280;19550;42.872;25.494;2023-03-17T03:35:43;96777.69;;;3.25;100.00
33185;BME280;19550;42.872;25.494;2023-03-17T03:38:11;96785.09;;;3.34;100.00
33185;BME280;19550;42.872;25.494;2023-03-17T03:40:38;96779.59;;;3.29;100.00
33185;BME280;19550;42.872;25.494;2023-03-17T03:43:05;96785.59;;;3.26;100.00
33185;BME280;19550;42.872;25.494;2023-03-17T03:45:32;96783.47;;;3.33;100.00
33185;BME280;19550;42.872;25.494;2023-03-17T03:48:00;96787.25;;;3.27;100.00
33185;BME280;19550;42.872;25.494;2023-03-17T03:50:27;96784.97;;;3.14;100.00
33185;BME280;19550;42.872;25.494;2023-03-17T03:52:54;96777.00;;;3.07;100.00
33185;BME280;19550;42.872;25.494;2023-03-17T03:55:22;96791.78;;;3.06;100.00
33185;BME280;19550;42.872;25.494;2023-03-17T03:57:48;96800.88;;;3.12;100.00
33185;BME280;19550;42.872;25.494;2023-03-17T04:00:16;96791.78;;;3.06;100.00
33185;BME280;19550;42.872;25.494;2023-03-17T04:02:44;96796.16;;;3.07;100.00
33185;BME280;19550;42.872;25.494;2023-03-17T04:05:14;96792.06;;;3.05;100.00
33185;BME280;19550;42.872;25.494;2023-03-17T04:07:41;96793.25;;;3.19;100.00
33185;BME280;19550;42.872;25.494;2023-03-17T04:10:09;96800.91;;;3.17;100.00
33185;BME280;19550;42.872;25.494;2023-03-17T04:12:37;96811.84;;;3.17;100.00
33185;BME280;19550;42.872;25.494;2023-03-17T04:15:05;96805.28;;;3.18;100.00
33185;BME280;19550;42.872;25.494;2023-03-17T04:17:33;96814.50;;;3.07;100.00
33185;BME280;19550;42.872;25.494;2023-03-17T04:20:00;96811.22;;;3.05;100.00
33185;BME280;19550;42.872;25.494;2023-03-17T04:22:28;96814.72;;;3.00;100.00
33185;BME280;19550;42.872;25.494;2023-03-17T04:24:55;96825.44;;;3.02;100.00
33185;BME280;19550;42.872;25.494;2023-03-17T04:27:22;96824.41;;;3.13;100.00
33185;BME280;19550;42.872;25.494;2023-03-17T04:29:48;96829.09;;;3.12;100.00
33185;BME280;19550;42.872;25.494;2023-03-17T04:32:15;96832.09;;;3.11;100.00
33185;BME280;19550;42.872;25.494;2023-03-17T04:34:42;96827.72;;;3.15;100.00
33185;BME280;19550;42.872;25.494;2023-03-17T04:37:10;96839.25;;;3.17;100.00
33185;BME280;19550;42.872;25.494;2023-03-17T04:39:38;96832.38;;;3.14;100.00
33185;BME280;19550;42.872;25.494;2023-03-17T04:42:06;96828.50;;;3.10;100.00
33185;BME280;19550;42.872;25.494;2023-03-17T04:44:33;96838.63;;;3.05;100.00
33185;BME280;19550;42.872;25.494;2023-03-17T04:47:01;96838.03;;;3.03;100.00
33185;BME280;19550;42.872;25.494;2023-03-17T04:49:27;96837.00;;;3.09;100.00
33185;BME280;19550;42.872;25.494;2023-03-17T04:51:54;96841.91;;;3.07;100.00
33185;BME280;19550;42.872;25.494;2023-03-17T04:54:21;96844.09;;;3.05;100.00
33185;BME280;19550;42.872;25.494;2023-03-17T04:56:50;96848.44;;;3.06;100.00
33185;BME280;19550;42.872;25.494;2023-03-17T04:59:17;96846.81;;;3.05;100.00
33185;BME280;19550;42.872;25.494;2023-03-17T05:01:44;96849.56;;;3.05;100.00
33185;BME280;19550;42.872;25.494;2023-03-17T05:04:11;96853.75;;;3.12;100.00
33185;BME280;19550;42.872;25.494;2023-03-17T05:06:38;96857.38;;;3.23;100.00
33185;BME280;19550;42.872;25.494;2023-03-17T05:09:05;96860.69;;;3.25;100.00
33185;BME280;19550;42.872;25.494;2023-03-17T05:11:33;96854.63;;;3.23;100.00
33185;BME280;19550;42.872;25.494;2023-03-17T05:14:01;96849.94;;;3.18;100.00
33185;BME280;19550;42.872;25.494;2023-03-17T05:16:28;96861.81;;;3.34;100.00
33185;BME280;19550;42.872;25.494;2023-03-17T05:18:55;96856.94;;;3.41;100.00
33185;BME280;19550;42.872;25.494;2023-03-17T05:21:21;96866.00;;;3.47;100.00
33185;BME280;19550;42.872;25.494;2023-03-17T05:23:48;96872.91;;;3.54;100.00
33185;BME280;19550;42.872;25.494;2023-03-17T05:26:15;96870.78;;;3.67;100.00
33185;BME280;19550;42.872;25.494;2023-03-17T05:28:43;96872.53;;;3.78;100.00
33185;BME280;19550;42.872;25.494;2023-03-17T05:31:11;96884.09;;;3.90;100.00
33185;BME280;19550;42.872;25.494;2023-03-17T05:33:38;96878.84;;;3.83;100.00
33185;BME280;19550;42.872;25.494;2023-03-17T05:36:05;96887.31;;;3.77;100.00
33185;BME280;19550;42.872;25.494;2023-03-17T05:38:32;96886.84;;;3.90;100.00
33185;BME280;19550;42.872;25.494;2023-03-17T05:40:59;96886.84;;;3.90;100.00
33185;BME280;19550;42.872;25.494;2023-03-17T05:43:27;96894.28;;;3.99;100.00
33185;BME280;19550;42.872;25.494;2023-03-17T05:45:53;96892.34;;;4.00;100.00
33185;BME280;19550;42.872;25.494;2023-03-17T05:48:22;96903.28;;;3.90;100.00
33185;BME280;19550;42.872;25.494;2023-03-17T05:50:48;96901.06;;;3.87;100.00
33185;BME280;19550;42.872;25.494;2023-03-17T05:53:15;96909.38;;;4.02;100.00
33185;BME280;19550;42.872;25.494;2023-03-17T05:55:43;96903.03;;;3.91;100.00
33185;BME280;19550;42.872;25.494;2023-03-17T05:58:09;96908.78;;;3.90;100.00
33185;BME280;19550;42.872;25.494;2023-03-17T06:00:37;96909.34;;;3.92;100.00
33185;BME280;19550;42.872;25.494;2023-03-17T06:03:04;96911.28;;;4.02;100.00
33185;BME280;19550;42.872;25.494;2023-03-17T06:05:33;96919.09;;;4.25;100.00
33185;BME280;19550;42.872;25.494;2023-03-17T06:08:00;96928.41;;;4.19;100.00
33185;BME280;19550;42.872;25.494;2023-03-17T06:10:27;96930.59;;;4.22;100.00
33185;BME280;19550;42.872;25.494;2023-03-17T06:12:54;96939.94;;;4.26;100.00
33185;BME280;19550;42.872;25.494;2023-03-17T06:15:21;96944.94;;;4.39;100.00
33185;BME280;19550;42.872;25.494;2023-03-17T06:17:48;96950.50;;;4.54;100.00
33185;BME280;19550;42.872;25.494;2023-03-17T06:20:15;96949.47;;;4.70;100.00
33185;BME280;19550;42.872;25.494;2023-03-17T06:22:44;96950.81;;;4.68;100.00
33185;BME280;19550;42.872;25.494;2023-03-17T06:25:11;96945.59;;;4.66;100.00
33185;BME280;19550;42.872;25.494;2023-03-17T06:27:38;96950.88;;;4.88;100.00
33185;BME280;19550;42.872;25.494;2023-03-17T06:30:06;96957.19;;;4.94;100.00
33185;BME280;19550;42.872;25.494;2023-03-17T06:32:33;96953.06;;;4.86;100.00
33185;BME280;19550;42.872;25.494;2023-03-17T06:35:00;96959.94;;;4.84;100.00
33185;BME280;19550;42.872;25.494;2023-03-17T06:37:29;96963.47;;;4.74;100.00
33185;BME280;19550;42.872;25.494;2023-03-17T06:39:57;96968.38;;;4.67;99.32
33185;BME280;19550;42.872;25.494;2023-03-17T06:42:25;96973.13;;;4.87;100.00
33185;BME280;19550;42.872;25.494;2023-03-17T06:44:52;96972.53;;;4.79;96.87
33185;BME280;19550;42.872;25.494;2023-03-17T06:47:19;96977.25;;;4.84;98.82
33185;BME280;19550;42.872;25.494;2023-03-17T06:49:46;96973.94;;;4.82;98.16
33185;BME280;19550;42.872;25.494;2023-03-17T06:52:13;96966.84;;;4.96;96.75
33185;BME280;19550;42.872;25.494;2023-03-17T06:54:40;96975.69;;;5.18;97.19
33185;BME280;19550;42.872;25.494;2023-03-17T06:57:08;96972.13;;;5.43;96.11
33185;BME280;19550;42.872;25.494;2023-03-17T06:59:35;96977.38;;;5.70;94.05
33185;BME280;19550;42.872;25.494;2023-03-17T07:02:02;96981.22;;;5.64;91.63
33185;BME280;19550;42.872;25.494;2023-03-17T07:04:29;96977.38;;;5.70;93.35
33185;BME280;19550;42.872;25.494;2023-03-17T07:06:56;96979.00;;;5.81;94.03
33185;BME280;19550;42.872;25.494;2023-03-17T07:09:23;96983.97;;;5.94;91.47
33185;BME280;19550;42.872;25.494;2023-03-17T07:11:50;96982.03;;;6.00;92.38
33185;BME280;19550;42.872;25.494;2023-03-17T07:14:19;96976.53;;;5.85;91.68
33185;BME280;19550;42.872;25.494;2023-03-17T07:16:46;96974.59;;;6.06;90.90
33185;BME280;19550;42.872;25.494;2023-03-17T07:19:12;96971.84;;;6.06;91.60
33185;BME280;19550;42.872;25.494;2023-03-17T07:21:39;96968.56;;;6.09;91.83
33185;BME280;19550;42.872;25.494;2023-03-17T07:24:07;96966.63;;;6.04;91.03
33185;BME280;19550;42.872;25.494;2023-03-17T07:26:34;96963.34;;;6.02;90.82
33185;BME280;19550;42.872;25.494;2023-03-17T07:29:01;96967.41;;;6.20;91.48
33185;BME280;19550;42.872;25.494;2023-03-17T07:31:29;96971.00;;;6.05;89.71
33185;BME280;19550;42.872;25.494;2023-03-17T07:33:56;96975.97;;;6.08;90.48
33185;BME280;19550;42.872;25.494;2023-03-17T07:36:23;96976.53;;;6.05;91.75
33185;BME280;19550;42.872;25.494;2023-03-17T07:38:50;96984.78;;;5.85;90.43
33185;BME280;19550;42.872;25.494;2023-03-17T07:41:17;96977.91;;;5.72;92.09
33185;BME280;19550;42.872;25.494;2023-03-17T07:43:44;96987.78;;;5.53;93.74
33185;BME280;19550;42.872;25.494;2023-03-17T07:46:11;96983.13;;;5.43;93.25
33185;BME280;19550;42.872;25.494;2023-03-17T07:48:39;96984.50;;;5.31;93.02
33185;BME280;19550;42.872;25.494;2023-03-17T07:51:11;96988.31;;;5.14;93.48
33185;BME280;19550;42.872;25.494;2023-03-17T07:53:38;96985.81;;;5.03;95.69
33185;BME280;19550;42.872;25.494;2023-03-17T07:56:06;96981.94;;;4.94;96.02
33185;BME280;19550;42.872;25.494;2023-03-17T07:58:33;96988.75;;;4.86;97.47
33185;BME280;19550;42.872;25.494;2023-03-17T08:01:01;97004.41;;;4.75;97.84
33185;BME280;19550;42.872;25.494;2023-03-17T08:03:28;96992.06;;;4.78;97.38
33185;BME280;19550;42.872;25.494;2023-03-17T08:05:57;96988.72;;;4.71;98.85
33185;BME280;19550;42.872;25.494;2023-03-17T08:08:25;96996.94;;;4.66;97.39
33185;BME280;19550;42.872;25.494;2023-03-17T08:10:57;97000.22;;;4.58;97.87
33185;BME280;19550;42.872;25.494;2023-03-17T08:13:26;96993.47;;;4.33;97.08
33185;BME280;19550;42.872;25.494;2023-03-17T08:15:52;97003.09;;;4.31;98.98
33185;BME280;19550;42.872;25.494;2023-03-17T08:18:19;96994.81;;;4.26;97.98
33185;BME280;19550;42.872;25.494;2023-03-17T08:20:46;96992.13;;;4.31;97.49
33185;BME280;19550;42.872;25.494;2023-03-17T08:23:14;96994.06;;;4.40;97.26
33185;BME280;19550;42.872;25.494;2023-03-17T08:25:42;96993.84;;;4.47;98.37
33185;BME280;19550;42.872;25.494;2023-03-17T08:28:11;96988.09;;;4.49;96.46
33185;BME280;19550;42.872;25.494;2023-03-17T08:30:39;96998.81;;;4.55;96.72
33185;BME280;19550;42.872;25.494;2023-03-17T08:33:06;96993.31;;;4.55;96.62
33185;BME280;19550;42.872;25.494;2023-03-17T08:35:33;96994.16;;;4.61;95.74
33185;BME280;19550;42.872;25.494;2023-03-17T08:38:01;96987.31;;;4.58;96.04
33185;BME280;19550;42.872;25.494;2023-03-17T08:40:29;96990.34;;;4.67;97.19
33185;BME280;19550;42.872;25.494;2023-03-17T08:42:56;96994.16;;;4.61;97.89
33185;BME280;19550;42.872;25.494;2023-03-17T08:45:23;96993.13;;;4.72;97.22
33185;BME280;19550;42.872;25.494;2023-03-17T08:47:50;96992.84;;;4.68;97.49
33185;BME280;19550;42.872;25.494;2023-03-17T08:50:19;96994.47;;;4.64;98.26
33185;BME280;19550;42.872;25.494;2023-03-17T08:52:47;96991.19;;;4.72;97.83
33185;BME280;19550;42.872;25.494;2023-03-17T08:55:15;96985.41;;;4.64;97.86
33185;BME280;19550;42.872;25.494;2023-03-17T08:57:44;96990.13;;;4.78;97.56
33185;BME280;19550;42.872;25.494;2023-03-17T09:00:13;96990.13;;;4.78;97.89
33185;BME280;19550;42.872;25.494;2023-03-17T09:02:42;96992.06;;;4.78;99.12
33185;BME280;19550;42.872;25.494;2023-03-17T09:05:10;96990.06;;;4.63;98.95
33185;BME280;19550;42.872;25.494;2023-03-17T09:07:38;96994.66;;;4.53;100.00
33185;BME280;19550;42.872;25.494;2023-03-17T09:10:07;96994.09;;;4.46;100.00
33185;BME280;19550;42.872;25.494;2023-03-17T09:12:35;96991.31;;;4.35;100.00
33185;BME280;19550;42.872;25.494;2023-03-17T09:15:04;96996.56;;;4.42;100.00
33185;BME280;19550;42.872;25.494;2023-03-17T09:17:32;96994.63;;;4.43;100.00
33185;BME280;19550;42.872;25.494;2023-03-17T09:19:59;96997.22;;;4.64;100.00
33185;BME280;19550;42.872;25.494;2023-03-17T09:22:25;96989.75;;;4.60;100.00
33185;BME280;19550;42.872;25.494;2023-03-17T09:24:52;96993.16;;;4.77;100.00
33185;BME280;19550;42.872;25.494;2023-03-17T09:27:19;96994.25;;;4.86;100.00
33185;BME280;19550;42.872;25.494;2023-03-17T09:29:46;96989.66;;;5.02;100.00
33185;BME280;19550;42.872;25.494;2023-03-17T09:32:14;96986.91;;;4.97;100.00
33185;BME280;19550;42.872;25.494;2023-03-17T09:34:42;96983.88;;;5.03;100.00
33185;BME280;19550;42.872;25.494;2023-03-17T09:37:09;96981.72;;;5.10;100.00
33185;BME280;19550;42.872;25.494;2023-03-17T09:39:35;96980.56;;;4.91;100.00
33185;BME280;19550;42.872;25.494;2023-03-17T09:42:07;96982.50;;;4.96;100.00
33185;BME280;19550;42.872;25.494;2023-03-17T09:44:46;96983.91;;;5.08;100.00
33185;BME280;19550;42.872;25.494;2023-03-17T09:47:33;96984.72;;;5.09;100.00
33185;BME280;19550;42.872;25.494;2023-03-17T09:50:08;96984.19;;;5.27;100.00
33185;BME280;19550;42.872;25.494;2023-03-17T09:52:37;96974.63;;;5.45;100.00
33185;BME280;19550;42.872;25.494;2023-03-17T09:55:05;96972.16;;;5.64;100.00
33185;BME280;19550;42.872;25.494;2023-03-17T09:57:34;96972.97;;;5.69;99.50
33185;BME280;19550;42.872;25.494;2023-03-17T10:00:05;96968.56;;;5.83;98.89
33185;BME280;19550;42.872;25.494;2023-03-17T10:02:40;96971.31;;;5.83;98.16
33185;BME280;19550;42.872;25.494;2023-03-17T10:05:15;96964.97;;;5.83;95.33
33185;BME280;19550;42.872;25.494;2023-03-17T10:07:48;96971.31;;;5.83;95.43
33185;BME280;19550;42.872;25.494;2023-03-17T10:10:22;96966.34;;;5.85;95.64
33185;BME280;19550;42.872;25.494;2023-03-17T10:12:59;96970.75;;;5.66;94.07
33185;BME280;19550;42.872;25.494;2023-03-17T10:15:33;96965.81;;;5.73;95.02
33185;BME280;19550;42.872;25.494;2023-03-17T10:18:11;96968.84;;;5.72;96.10
33185;BME280;19550;42.872;25.494;2023-03-17T10:20:46;96972.13;;;5.69;96.59
33185;BME280;19550;42.872;25.494;2023-03-17T10:23:16;96969.13;;;5.70;95.56
33185;BME280;19550;42.872;25.494;2023-03-17T10:25:45;96968.81;;;5.82;94.99
33185;BME280;19550;42.872;25.494;2023-03-17T10:28:22;96971.31;;;5.78;95.40
33185;BME280;19550;42.872;25.494;2023-03-17T10:30:52;96961.97;;;5.94;96.04
33185;BME280;19550;42.872;25.494;2023-03-17T10:33:21;96962.75;;;6.05;94.29
33185;BME280;19550;42.872;25.494;2023-03-17T10:35:47;96969.09;;;6.16;93.30
33185;BME280;19550;42.872;25.494;2023-03-17T10:38:17;96956.63;;;6.38;95.08
33185;BME280;19550;42.872;25.494;2023-03-17T10:40:45;96954.63;;;6.64;93.40
33185;BME280;19550;42.872;25.494;2023-03-17T10:43:16;96952.88;;;6.84;91.31
33185;BME280;19550;42.872;25.494;2023-03-17T10:45:57;96953.34;;;6.96;90.97
33185;BME280;19550;42.872;25.494;2023-03-17T10:48:26;96954.38;;;7.05;91.06
33185;BME280;19550;42.872;25.494;2023-03-17T10:50:56;96956.78;;;7.22;90.98
33185;BME280;19550;42.872;25.494;2023-03-17T10:53:25;96944.00;;;6.97;89.71
33185;BME280;19550;42.872;25.494;2023-03-17T10:55:56;96958.56;;;7.02;89.50
33185;BME280;19550;42.872;25.494;2023-03-17T10:58:36;96954.75;;;6.93;87.54
33185;BME280;19550;42.872;25.494;2023-03-17T11:01:06;96945.63;;;6.98;87.99
33185;BME280;19550;42.872;25.494;2023-03-17T11:03:39;96953.91;;;6.93;90.00
33185;BME280;19550;42.872;25.494;2023-03-17T11:06:08;96956.16;;;6.91;89.90
33185;BME280;19550;42.872;25.494;2023-03-17T11:08:38;96950.34;;;6.92;90.72
33185;BME280;19550;42.872;25.494;2023-03-17T11:11:08;96949.50;;;6.92;89.72
33185;BME280;19550;42.872;25.494;2023-03-17T11:13:36;96946.47;;;6.93;90.25
33185;BME280;19550;42.872;25.494;2023-03-17T11:16:18;96945.00;;;7.06;86.95
33185;BME280;19550;42.872;25.494;2023-03-17T11:18:49;96942.91;;;7.32;86.59
33185;BME280;19550;42.872;25.494;2023-03-17T11:21:21;96939.78;;;7.48;85.95
33185;BME280;19550;42.872;25.494;2023-03-17T11:23:55;96941.81;;;7.67;84.93
33185;BME280;19550;42.872;25.494;2023-03-17T11:26:48;96937.84;;;7.83;82.86
33185;BME280;19550;42.872;25.494;2023-03-17T11:29:25;96933.66;;;7.85;82.90
33185;BME280;19550;42.872;25.494;2023-03-17T11:31:58;96921.00;;;7.84;83.23
33185;BME280;19550;42.872;25.494;2023-03-17T11:34:39;96925.84;;;7.92;83.06
33185;BME280;19550;42.872;25.494;2023-03-17T11:37:19;96927.97;;;7.77;82.50
33185;BME280;19550;42.872;25.494;2023-03-17T11:39:53;96927.66;;;7.78;82.74
33185;BME280;19550;42.872;25.494;2023-03-17T11:42:26;96928.47;;;7.79;80.66
33185;BME280;19550;42.872;25.494;2023-03-17T11:45:10;96922.84;;;7.60;78.76
33185;BME280;19550;42.872;25.494;2023-03-17T11:47:57;96929.06;;;7.42;80.60
33185;BME280;19550;42.872;25.494;2023-03-17T11:50:35;96926.59;;;7.40;82.98
33185;BME280;19550;42.872;25.494;2023-03-17T11:53:19;96924.03;;;7.15;85.46
33185;BME280;19550;42.872;25.494;2023-03-17T11:55:51;96929.94;;;6.93;84.59
33185;BME280;19550;42.872;25.494;2023-03-17T11:58:26;96931.59;;;6.94;85.40
33185;BME280;19550;42.872;25.494;2023-03-17T12:00:57;96935.25;;;6.85;86.98
33185;BME280;19550;42.872;25.494;2023-03-17T12:03:30;96931.56;;;6.99;87.88
33185;BME280;19550;42.872;25.494;2023-03-17T12:06:03;96939.44;;;6.67;87.10
33185;BME280;19550;42.872;25.494;2023-03-17T12:08:35;96941.94;;;6.68;88.29
33185;BME280;19550;42.872;25.494;2023-03-17T12:11:06;96936.91;;;6.81;88.59
33185;BME280;19550;42.872;25.494;2023-03-17T12:13:37;96929.69;;;6.90;88.10
33185;BME280;19550;42.872;25.494;2023-03-17T12:16:10;96930.28;;;6.82;88.45
33185;BME280;19550;42.872;25.494;2023-03-17T12:18:41;96935.06;;;6.61;89.01
33185;BME280;19550;42.872;25.494;2023-03-17T12:21:19;96933.09;;;6.66;89.46
33185;BME280;19550;42.872;25.494;2023-03-17T12:23:49;96933.81;;;6.38;90.13
33185;BME280;19550;42.872;25.494;2023-03-17T12:26:17;96940.16;;;6.23;90.59
33185;BME280;19550;42.872;25.494;2023-03-17T12:28:49;96940.75;;;6.10;91.65
33185;BME280;19550;42.872;25.494;2023-03-17T12:31:21;96933.91;;;5.97;92.64
33185;BME280;19550;42.872;25.494;2023-03-17T12:33:55;96944.09;;;5.97;92.94
33185;BME280;19550;42.872;25.494;2023-03-17T12:36:25;96946.84;;;5.97;92.44
33185;BME280;19550;42.872;25.494;2023-03-17T12:38:55;96948.50;;;5.98;93.36
33185;BME280;19550;42.872;25.494;2023-03-17T12:41:48;96948.22;;;5.89;93.76
33185;BME280;19550;42.872;25.494;2023-03-17T12:44:32;96954.81;;;5.78;94.66
33185;BME280;19550;42.872;25.494;2023-03-17T12:47:22;96964.47;;;5.91;94.38
33185;BME280;19550;42.872;25.494;2023-03-17T12:50:17;96959.22;;;5.84;94.16
33185;BME280;19550;42.872;25.494;2023-03-17T12:53:18;96956.72;;;5.83;94.27
33185;BME280;19550;42.872;25.494;2023-03-17T12:55:51;96967.19;;;5.96;94.18
33185;BME280;19550;42.872;25.494;2023-03-17T12:58:28;96961.41;;;5.87;93.32
33185;BME280;19550;42.872;25.494;2023-03-17T13:01:04;96960.84;;;5.80;93.20
33185;BME280;19550;42.872;25.494;2023-03-17T13:03:33;96971.56;;;5.87;93.70
33185;BME280;19550;42.872;25.494;2023-03-17T13:06:03;96974.59;;;5.75;93.95